Time;durP1;ratioP1;P1;durP2;ratioP2;P2;SDS_P1;SDS_P2;PMS_P1;PMS_P2;Temp;Humidity;BMP_temperature;BMP_pressure;BME280_temperature;BME280_humidity;BME280_pressure;Samples;Min_cycle;Max_cycle;Signal;HPM_P1;HPM_P2
2022/03/17 00:00:44;;;;;;;9.73;8.82;;;;;;;5.40;100.00;99251.81;10495777;28;20124;-55
2022/03/17 00:05:48;;;;;;;9.23;8.43;;;;;;;5.33;100.00;99251.38;10494800;28;20036;-53
2022/03/17 00:10:52;;;;;;;10.10;8.63;;;;;;;5.24;100.00;99242.19;10494734;28;20083;-52
2022/03/17 00:15:55;;;;;;;9.30;8.38;;;;;;;5.22;100.00;99244.13;10495312;28;20771;-58
2022/03/17 00:20:58;;;;;;;10.30;9.30;;;;;;;5.19;100.00;99247.00;10506275;28;20386;-53
2022/03/17 00:26:03;;;;;;;10.32;9.32;;;;;;;5.18;100.00;99239.09;10522072;28;20982;-55
2022/03/17 00:31:06;;;;;;;10.75;9.73;;;;;;;5.18;100.00;99247.97;10503004;28;20894;-51
2022/03/17 00:36:09;;;;;;;9.93;9.00;;;;;;;5.12;100.00;99244.88;10496707;28;20516;-52
2022/03/17 00:41:13;;;;;;;9.45;8.65;;;;;;;5.08;100.00;99242.41;10492280;28;20040;-53
2022/03/17 00:46:16;;;;;;;10.00;9.05;;;;;;;5.07;100.00;99245.19;10495534;27;20506;-54
2022/03/17 00:51:20;;;;;;;9.70;8.80;;;;;;;5.02;100.00;99237.50;10499495;28;20086;-54
2022/03/17 00:56:24;;;;;;;10.13;9.05;;;;;;;4.98;100.00;99227.97;10497846;28;20080;-53
2022/03/17 01:01:27;;;;;;;10.35;9.27;;;;;;;4.96;100.00;99226.38;10491371;28;20063;-54
2022/03/17 01:06:30;;;;;;;10.20;9.18;;;;;;;4.95;100.00;99236.19;10495153;28;20064;-54
2022/03/17 01:11:40;;;;;;;9.93;8.93;;;;;;;4.90;100.00;99223.16;10495232;28;20037;-54
2022/03/17 01:16:44;;;;;;;13.02;9.50;;;;;;;4.86;100.00;99210.13;10491407;28;20135;-56
2022/03/17 01:21:47;;;;;;;9.98;9.07;;;;;;;4.84;100.00;99214.72;10490341;28;20519;-54
2022/03/17 01:26:52;;;;;;;10.55;9.45;;;;;;;4.83;100.00;99205.00;10493935;28;20049;-52
2022/03/17 01:31:57;;;;;;;10.90;9.90;;;;;;;4.86;100.00;99215.47;10497038;28;20068;-55
2022/03/17 01:37:00;;;;;;;10.60;9.52;;;;;;;4.84;100.00;99210.25;10490396;28;20128;-55
2022/03/17 01:42:07;;;;;;;11.20;10.10;;;;;;;4.84;100.00;99215.59;10499096;28;20064;-54
2022/03/17 01:47:28;;;;;;;10.85;9.85;;;;;;;4.84;100.00;99207.56;10491405;28;20115;-53
2022/03/17 01:52:32;;;;;;;10.75;9.70;;;;;;;4.80;100.00;99198.06;10488421;28;20144;-55
2022/03/17 01:57:38;;;;;;;11.38;10.27;;;;;;;4.83;100.00;99203.19;10492574;28;20051;-52
2022/03/17 02:02:42;;;;;;;11.10;9.95;;;;;;;4.80;100.00;99197.22;10495324;28;20051;-51
2022/03/17 02:07:48;;;;;;;11.00;9.93;;;;;;;4.82;100.00;99204.16;10490340;28;20421;-52
2022/03/17 02:13:11;;;;;;;11.30;10.30;;;;;;;4.79;100.00;99191.00;10490721;28;20044;-53
2022/03/17 02:18:16;;;;;;;12.50;11.30;;;;;;;4.82;100.00;99190.81;10499865;28;20075;-52
2022/03/17 02:28:41;;;;;;;12.73;11.52;;;;;;;4.83;100.00;99199.66;10488726;28;20067;-52
2022/03/17 02:33:44;;;;;;;12.70;11.40;;;;;;;4.85;100.00;99187.94;10489738;28;20542;-52
2022/03/17 02:38:48;;;;;;;12.45;11.20;;;;;;;4.86;100.00;99196.78;10489042;28;20132;-54
2022/03/17 02:43:53;;;;;;;14.05;12.55;;;;;;;4.82;100.00;99188.13;10489049;28;20045;-56
2022/03/17 02:48:57;;;;;;;13.60;12.20;;;;;;;4.85;100.00;99187.94;10489363;28;20057;-52
2022/03/17 02:54:01;;;;;;;14.32;12.60;;;;;;;4.88;100.00;99192.19;10490977;28;20182;-53
2022/03/17 02:59:04;;;;;;;14.02;12.63;;;;;;;4.86;100.00;99189.63;10497515;28;20125;-55
2022/03/17 03:04:07;;;;;;;14.18;12.88;;;;;;;4.88;100.00;99197.53;10497090;28;20044;-53
2022/03/17 03:09:12;;;;;;;14.23;12.93;;;;;;;4.85;100.00;99190.59;10497600;28;20470;-52
2022/03/17 03:14:15;;;;;;;13.60;12.30;;;;;;;4.88;100.00;99197.53;10495085;28;20078;-52
2022/03/17 03:19:18;;;;;;;14.75;13.35;;;;;;;4.86;100.00;99197.66;10495456;28;20105;-55
2022/03/17 03:24:23;;;;;;;15.10;13.55;;;;;;;4.87;100.00;99196.69;10494699;28;20053;-53
2022/03/17 03:29:26;;;;;;;14.70;13.25;;;;;;;4.93;100.00;99201.59;10496521;28;20044;-55
2022/03/17 03:34:29;;;;;;;15.27;13.77;;;;;;;4.94;100.00;99205.97;10498174;28;20509;-56
2022/03/17 03:39:34;;;;;;;15.77;14.15;;;;;;;4.97;100.00;99222.75;10496062;28;20501;-53
2022/03/17 03:44:38;;;;;;;16.17;14.68;;;;;;;4.97;100.00;99201.38;10494533;28;20045;-55
2022/03/17 03:49:42;;;;;;;17.02;15.32;;;;;;;4.99;100.00;99211.00;10495854;28;20121;-56
2022/03/17 03:54:47;;;;;;;15.27;13.77;;;;;;;4.96;100.00;99210.34;10495241;28;20036;-52
2022/03/17 03:59:50;;;;;;;15.20;13.80;;;;;;;4.94;100.00;99232.69;10492768;28;20048;-55
2022/03/17 04:04:53;;;;;;;15.15;13.75;;;;;;;4.89;100.00;99226.78;10494063;28;20083;-53
2022/03/17 04:09:57;;;;;;;15.57;14.02;;;;;;;4.89;100.00;99221.44;10494298;28;20041;-52
2022/03/17 04:15:00;;;;;;;16.48;14.77;;;;;;;4.87;100.00;99223.38;10509138;28;20035;-52
2022/03/17 04:20:05;;;;;;;17.15;15.43;;;;;;;4.87;100.00;99222.53;10511288;28;20093;-56
2022/03/17 04:25:10;;;;;;;18.10;16.25;;;;;;;4.91;100.00;99214.19;10496541;28;20504;-54
2022/03/17 04:30:13;;;;;;;18.70;16.77;;;;;;;4.93;100.00;99217.63;10496644;28;20128;-56
2022/03/17 04:35:17;;;;;;;19.30;17.20;;;;;;;4.97;100.00;99220.91;10495126;28;20143;-53
2022/03/17 04:40:22;;;;;;;19.52;17.52;;;;;;;5.01;100.00;99241.13;10498857;28;20045;-53
2022/03/17 04:45:25;;;;;;;18.67;16.80;;;;;;;5.07;100.00;99234.50;10494382;28;20568;-52
2022/03/17 04:50:29;;;;;;;18.80;16.92;;;;;;;5.12;100.00;99251.06;10506966;28;21297;-53
2022/03/17 04:55:34;;;;;;;19.17;17.27;;;;;;;5.17;100.00;99250.75;10504502;28;20485;-53
2022/03/17 05:00:37;;;;;;;18.38;16.50;;;;;;;5.13;100.00;99259.94;10496900;28;20048;-52
2022/03/17 05:05:41;;;;;;;18.90;16.98;;;;;;;5.15;100.00;99248.19;10491986;28;20048;-52
2022/03/17 05:10:47;;;;;;;17.77;15.98;;;;;;;5.12;100.00;99243.03;10489109;28;20119;-53
2022/03/17 05:15:51;;;;;;;18.77;16.98;;;;;;;5.06;100.00;99238.97;10490104;28;20105;-52
2022/03/17 05:20:54;;;;;;;21.27;19.08;;;;;;;5.06;100.00;99247.00;10491756;28;20048;-52
2022/03/17 05:25:59;;;;;;;20.70;18.80;;;;;;;5.05;100.00;99247.09;10494827;28;20044;-53
2022/03/17 05:31:03;;;;;;;20.40;18.50;;;;;;;5.04;100.00;99245.38;10491131;28;20052;-53
2022/03/17 05:36:07;;;;;;;19.77;17.83;;;;;;;5.04;100.00;99251.59;10495588;28;20090;-53
2022/03/17 05:41:11;;;;;;;19.55;17.70;;;;;;;5.08;100.00;99261.09;10493925;28;20538;-57
2022/03/17 05:46:16;;;;;;;20.63;18.63;;;;;;;5.13;100.00;99255.44;10492925;28;20036;-57
2022/03/17 05:51:19;;;;;;;19.63;17.75;;;;;;;5.17;100.00;99267.63;10489659;28;20084;-56
2022/03/17 05:56:25;;;;;;;20.23;18.23;;;;;;;5.21;100.00;99261.13;10491880;28;20044;-56
2022/03/17 06:01:28;;;;;;;19.73;17.83;;;;;;;5.23;100.00;99269.88;10490076;28;20046;-54
2022/03/17 06:06:31;;;;;;;20.13;18.17;;;;;;;5.29;100.00;99262.41;10487124;28;20040;-56
2022/03/17 06:11:36;;;;;;;20.92;18.65;;;;;;;5.33;100.00;99270.09;10500533;28;20504;-54
2022/03/17 06:16:39;;;;;;;19.27;17.52;;;;;;;5.38;100.00;99275.97;10522831;27;20056;-53
2022/03/17 06:21:43;;;;;;;18.95;17.10;;;;;;;5.46;100.00;99287.94;10499927;28;20053;-52
2022/03/17 06:26:48;;;;;;;19.08;17.10;;;;;;;5.51;100.00;99283.97;10493228;28;20114;-56
2022/03/17 06:31:51;;;;;;;18.85;17.05;;;;;;;5.57;100.00;99279.19;10491004;28;20047;-52
2022/03/17 06:36:55;;;;;;;18.08;16.27;;;;;;;5.63;100.00;99273.38;10497925;28;20041;-53
2022/03/17 06:42:00;;;;;;;18.08;16.35;;;;;;;5.69;100.00;99291.69;10496959;28;20163;-53
2022/03/17 06:47:03;;;;;;;19.00;17.00;;;;;;;5.77;100.00;99285.75;10496690;28;20124;-53
2022/03/17 06:52:07;;;;;;;18.00;16.30;;;;;;;5.83;100.00;99291.53;10498735;28;20487;-56
2022/03/17 06:57:17;;;;;;;18.13;16.38;;;;;;;5.91;100.00;99274.94;10499900;28;20119;-54
2022/03/17 07:02:20;;;;;;;17.10;15.43;;;;;;;5.99;100.00;99279.75;10498351;28;20036;-59
2022/03/17 07:07:23;;;;;;;17.45;15.68;;;;;;;6.07;100.00;99282.75;10498905;28;20044;-57
2022/03/17 07:12:28;;;;;;;16.48;14.98;;;;;;;6.16;100.00;99278.53;10502290;28;20048;-57
2022/03/17 07:17:39;;;;;;;17.00;15.30;;;;;;;6.27;100.00;99281.28;10501488;28;20048;-53
2022/03/17 07:22:46;;;;;;;16.85;15.13;;;;;;;6.39;100.00;99298.28;10500776;28;20054;-55
2022/03/17 07:27:52;;;;;;;16.15;14.55;;;;;;;6.51;100.00;99309.06;10500780;28;20037;-52
2022/03/17 07:32:58;;;;;;;16.50;14.90;;;;;;;6.62;100.00;99314.47;10499660;28;20051;-57
2022/03/17 07:38:02;;;;;;;16.55;14.95;;;;;;;6.74;100.00;99313.56;10496883;28;20460;-53
2022/03/17 07:43:07;;;;;;;16.15;14.55;;;;;;;6.86;100.00;99309.09;10498898;28;20052;-57
2022/03/17 07:48:28;;;;;;;17.02;15.27;;;;;;;6.96;100.00;99314.63;10493521;28;20052;-54
2022/03/17 07:53:39;;;;;;;15.73;14.13;;;;;;;7.06;100.00;99307.59;10496003;28;20052;-55
2022/03/17 07:58:45;;;;;;;15.63;14.10;;;;;;;7.16;100.00;99312.22;10494832;28;20032;-57
2022/03/17 08:03:49;;;;;;;14.82;13.43;;;;;;;7.25;100.00;99311.50;10497921;28;20041;-56
2022/03/17 08:08:52;;;;;;;15.02;13.52;;;;;;;7.35;100.00;99309.84;10517643;28;20063;-55
2022/03/17 08:13:56;;;;;;;15.88;14.38;;;;;;;7.44;100.00;99310.13;10518827;28;20481;-55
2022/03/17 08:18:59;;;;;;;15.20;13.80;;;;;;;7.52;100.00;99308.56;10491145;28;20123;-54
2022/03/17 08:24:02;;;;;;;15.07;13.68;;;;;;;7.63;100.00;99309.53;10498225;28;20048;-57
2022/03/17 08:29:07;;;;;;;14.45;13.05;;;;;;;7.75;100.00;99313.06;10502014;28;20127;-53
2022/03/17 08:34:10;;;;;;;15.48;13.82;;;;;;;7.88;100.00;99312.97;10505265;28;20036;-58
2022/03/17 08:39:13;;;;;;;14.85;13.38;;;;;;;8.02;100.00;99301.94;10499804;28;20115;-57
2022/03/17 08:44:17;;;;;;;14.70;13.10;;;;;;;8.20;100.00;99304.16;10498415;28;20139;-53
2022/03/17 08:49:21;;;;;;;14.57;13.20;;;;;;;8.36;100.00;99301.06;10495930;28;20155;-55
2022/03/17 08:54:27;;;;;;;14.30;13.00;;;;;;;8.51;100.00;99291.78;10496641;28;20131;-57
2022/03/17 08:59:34;;;;;;;13.70;12.40;;;;;;;8.69;100.00;99289.41;10497183;28;20055;-55
2022/03/17 09:04:37;;;;;;;13.95;12.60;;;;;;;8.88;100.00;99291.38;10503712;28;20067;-53
2022/03/17 09:09:40;;;;;;;13.52;12.27;;;;;;;9.06;100.00;99294.34;10495823;28;20757;-53
2022/03/17 09:14:47;;;;;;;12.95;11.70;;;;;;;9.20;100.00;99298.56;10499140;28;20072;-54
2022/03/17 09:19:50;;;;;;;13.27;11.98;;;;;;;9.32;100.00;99298.50;10494764;28;20537;-55
2022/03/17 09:24:53;;;;;;;14.10;12.60;;;;;;;9.41;100.00;99301.22;10494742;28;20072;-59
2022/03/17 09:29:58;;;;;;;13.55;12.15;;;;;;;9.42;100.00;99299.41;10495201;28;20044;-57
2022/03/17 09:35:01;;;;;;;13.13;11.93;;;;;;;9.53;100.00;99301.16;10501849;28;20048;-55
2022/03/17 09:40:05;;;;;;;13.60;12.15;;;;;;;9.63;100.00;99293.16;10462394;28;20107;-58
2022/03/17 09:45:12;;;;;;;13.90;12.48;;;;;;;9.71;100.00;99302.28;10434260;28;20075;-57
2022/03/17 09:50:16;;;;;;;13.48;12.15;;;;;;;9.84;100.00;99302.03;10436466;28;20087;-55
2022/03/17 09:55:22;;;;;;;12.55;11.38;;;;;;;9.87;100.00;99303.63;10438894;28;20124;-53
2022/03/17 10:00:47;;;;;;;12.88;11.57;;;;;;;9.90;100.00;99313.25;10425342;28;20045;-55
2022/03/17 10:05:50;;;;;;;13.02;11.63;;;;;;;9.98;100.00;99325.06;10435228;28;20041;-53
2022/03/17 10:10:55;;;;;;;12.35;11.15;;;;;;;10.05;100.00;99336.16;10433721;28;20045;-55
2022/03/17 10:16:11;;;;;;;12.90;11.52;;;;;;;10.08;100.00;99338.53;10427154;28;20045;-56
2022/03/17 10:21:17;;;;;;;11.73;10.55;;;;;;;10.26;100.00;99344.13;10441214;28;20069;-54
2022/03/17 10:26:35;;;;;;;11.98;10.50;;;;;;;10.27;100.00;99342.31;10455470;28;20041;-54
2022/03/17 10:31:54;;;;;;;11.23;9.85;;;;;;;10.42;100.00;99343.66;10444202;28;20061;-54
2022/03/17 10:37:12;;;;;;;10.55;9.55;;;;;;;10.51;100.00;99343.84;10440221;28;20112;-56
2022/03/17 10:42:17;;;;;;;12.05;9.98;;;;;;;10.60;100.00;99353.78;10430444;28;20132;-56
2022/03/17 10:47:26;;;;;;;11.60;9.93;;;;;;;10.62;100.00;99351.81;10439890;28;20124;-53
2022/03/17 10:52:47;;;;;;;12.13;9.93;;;;;;;10.64;100.00;99355.22;10437901;28;20077;-56
2022/03/17 10:57:51;;;;;;;12.03;9.47;;;;;;;10.72;100.00;99362.56;10437049;28;20401;-53
2022/03/17 11:02:58;;;;;;;10.30;9.20;;;;;;;10.87;100.00;99369.28;10455556;28;20466;-53
2022/03/17 11:08:02;;;;;;;10.50;9.40;;;;;;;11.02;100.00;99376.97;10456616;28;20045;-58
2022/03/17 11:13:09;;;;;;;11.57;9.48;;;;;;;11.18;100.00;99369.16;10420919;28;20083;-56
2022/03/17 11:18:17;;;;;;;10.05;8.57;;;;;;;11.31;100.00;99368.88;10453032;28;20151;-53
2022/03/17 11:23:25;;;;;;;8.98;8.15;;;;;;;11.54;100.00;99368.56;10493260;28;20041;-55
2022/03/17 11:28:33;;;;;;;9.07;8.18;;;;;;;11.75;100.00;99368.41;10461122;28;20063;-54
2022/03/17 11:33:39;;;;;;;8.82;7.88;;;;;;;11.67;100.00;99373.66;10439346;28;20135;-55
2022/03/17 11:38:59;;;;;;;9.90;8.38;;;;;;;11.90;100.00;99367.91;10457439;28;20485;-55
2022/03/17 11:44:05;;;;;;;8.80;7.90;;;;;;;11.89;100.00;99385.97;10460397;28;20497;-53
2022/03/17 11:49:21;;;;;;;8.93;7.97;;;;;;;11.71;100.00;99375.91;10460614;28;20099;-53
2022/03/17 11:54:24;;;;;;;9.10;7.70;;;;;;;11.74;100.00;99382.91;10458344;28;20394;-53
2022/03/17 11:59:31;;;;;;;8.30;7.50;;;;;;;11.94;100.00;99388.25;10459779;28;20468;-53
2022/03/17 12:04:35;;;;;;;8.70;7.28;;;;;;;11.94;100.00;99380.97;10457755;28;20382;-53
2022/03/17 12:09:39;;;;;;;7.85;7.10;;;;;;;11.98;100.00;99387.84;10460348;28;20152;-56
2022/03/17 12:14:49;;;;;;;8.63;7.07;;;;;;;11.97;92.49;99396.91;10457616;28;20087;-55
2022/03/17 12:20:09;;;;;;;9.00;7.35;;;;;;;11.98;83.45;99393.22;10439749;28;20484;-56
2022/03/17 12:25:18;;;;;;;13.48;6.80;;;;;;;11.90;89.29;99398.50;10456595;28;20103;-54
2022/03/17 12:30:22;;;;;;;8.32;6.43;;;;;;;12.02;93.31;99396.50;10474534;28;20053;-56
2022/03/17 12:35:30;;;;;;;8.38;6.53;;;;;;;12.06;89.11;99397.03;10426643;28;20064;-53
2022/03/17 12:40:53;;;;;;;10.50;6.75;;;;;;;12.07;76.92;99396.03;10416212;28;20569;-51
2022/03/17 12:45:57;;;;;;;11.32;6.80;;;;;;;12.11;81.64;99413.66;10428574;28;20561;-56
2022/03/17 12:51:07;;;;;;;8.10;6.72;;;;;;;12.13;86.13;99419.78;10429375;28;20502;-51
2022/03/17 12:56:11;;;;;;;8.70;6.65;;;;;;;12.18;98.80;99418.34;10383020;28;20070;-53
2022/03/17 13:01:15;;;;;;;11.35;6.35;;;;;;;12.20;88.25;99418.19;10331550;28;20046;-54
2022/03/17 13:17:02;;;;;;;9.63;6.43;;;;;;;12.13;90.59;99427.88;10411341;28;20041;-56
2022/03/17 13:22:08;;;;;;;7.90;6.18;;;;;;;12.15;90.20;99431.31;10394247;28;20046;-61
2022/03/17 13:27:12;;;;;;;9.23;7.07;;;;;;;12.09;90.19;99438.13;10336489;28;20050;-57
2022/03/17 13:32:17;;;;;;;10.05;6.75;;;;;;;12.06;93.08;99437.56;10366594;28;20100;-58
2022/03/17 13:37:21;;;;;;;9.57;6.55;;;;;;;12.08;92.59;99435.56;10365291;28;20459;-59
2022/03/17 13:42:28;;;;;;;9.90;6.78;;;;;;;12.04;92.14;99439.56;10331857;28;20121;-54
2022/03/17 13:47:35;;;;;;;9.15;6.43;;;;;;;12.05;97.77;99446.69;10375359;28;20037;-55
2022/03/17 13:52:41;;;;;;;8.27;6.40;;;;;;;12.02;91.04;99450.50;10353109;28;20058;-54
2022/03/17 13:57:45;;;;;;;8.93;6.53;;;;;;;12.01;94.91;99463.16;10400561;28;20049;-58
2022/03/17 14:03:16;;;;;;;8.23;6.50;;;;;;;12.05;100.00;99462.88;10393741;28;20722;-61
2022/03/17 14:08:21;;;;;;;;;;;;;;;11.97;83.83;99463.56;10372678;28;20053;-58
2022/03/17 14:13:25;;;;;;;8.75;6.97;;;;;;;12.01;100.00;99468.56;10370951;28;19930;-57
2022/03/17 14:18:28;;;;;;;7.63;6.20;;;;;;;11.93;100.00;99476.53;10370728;28;20097;-55
2022/03/17 14:28:53;;;;;;;;;;;;;;;11.59;92.39;99489.59;10389660;28;20093;-54
2022/03/17 14:33:56;;;;;;;7.00;6.38;;;;;;;11.31;100.00;99495.69;10395108;28;20043;-58
2022/03/17 14:39:04;;;;;;;7.25;6.55;;;;;;;11.12;100.00;99503.72;10368711;28;20487;-56
2022/03/17 14:44:08;;;;;;;12.52;6.85;;;;;;;11.10;100.00;99510.13;10368679;28;20466;-57
2022/03/17 14:49:13;;;;;;;8.50;6.78;;;;;;;11.05;100.00;99515.06;10338865;28;20124;-58
2022/03/17 14:54:17;;;;;;;7.97;7.03;;;;;;;10.88;100.00;99513.00;10376085;28;20069;-58
2022/03/17 14:59:21;;;;;;;8.57;7.13;;;;;;;10.81;100.00;99522.63;10429532;28;20172;-55
2022/03/17 15:04:25;;;;;;;8.65;7.60;;;;;;;10.74;100.00;99533.97;10399659;28;20499;-54
2022/03/17 15:09:30;;;;;;;8.77;7.65;;;;;;;10.60;100.00;99545.09;10459347;28;20060;-58
2022/03/17 15:14:33;;;;;;;9.30;8.00;;;;;;;10.57;100.00;99542.66;10389860;28;20128;-51
2022/03/17 15:19:37;;;;;;;9.35;8.43;;;;;;;10.52;100.00;99547.63;10457236;28;20905;-57
2022/03/17 15:24:43;;;;;;;9.52;8.20;;;;;;;10.44;100.00;99550.97;10446561;28;20045;-55
2022/03/17 15:35:10;;;;;;;9.27;8.48;;;;;;;10.21;100.00;99563.69;10415883;28;20616;-57
2022/03/17 15:40:19;;;;;;;9.75;8.13;;;;;;;10.14;100.00;99566.91;10456230;28;20138;-54
2022/03/17 15:45:22;;;;;;;9.60;8.60;;;;;;;10.14;100.00;99568.72;10437588;28;20087;-53
2022/03/17 15:50:26;;;;;;;10.07;8.38;;;;;;;10.07;100.00;99576.47;10434879;28;20921;-53
2022/03/17 15:55:32;;;;;;;9.32;8.40;;;;;;;10.00;100.00;99588.75;10414042;28;20065;-54
2022/03/17 16:00:37;;;;;;;10.25;8.88;;;;;;;9.94;100.00;99590.13;10414294;28;20127;-53
2022/03/17 16:05:41;;;;;;;10.50;8.60;;;;;;;9.94;100.00;99600.03;10390798;28;20041;-56
2022/03/17 16:16:07;;;;;;;10.20;9.05;;;;;;;9.87;100.00;99622.09;10412974;28;20037;-53
2022/03/17 16:21:11;;;;;;;11.65;9.27;;;;;;;9.79;100.00;99624.56;10413369;28;20041;-51
2022/03/17 16:26:17;;;;;;;10.55;9.48;;;;;;;9.76;100.00;99635.56;10400040;28;20470;-54
2022/03/17 16:31:22;;;;;;;10.20;9.30;;;;;;;9.73;100.00;99638.50;10397484;28;20049;-52
2022/03/17 16:36:26;;;;;;;10.50;9.48;;;;;;;9.58;100.00;99651.38;10367267;28;20054;-53
2022/03/17 16:41:31;;;;;;;9.98;9.07;;;;;;;9.54;100.00;99661.56;10412585;28;20136;-49
2022/03/17 16:46:35;;;;;;;10.10;9.20;;;;;;;9.31;100.00;99673.31;10371849;28;20132;-53
2022/03/17 16:51:39;;;;;;;10.70;9.70;;;;;;;9.38;100.00;99672.69;10386274;28;20045;-55
2022/03/17 16:56:44;;;;;;;10.50;9.40;;;;;;;9.21;100.00;99694.69;10408432;28;20033;-55
2022/03/17 17:01:48;;;;;;;10.45;9.18;;;;;;;9.17;100.00;99702.13;10407737;28;20145;-57
2022/03/17 17:06:51;;;;;;;10.48;9.40;;;;;;;8.99;100.00;99714.34;10392731;28;20046;-53
2022/03/17 17:11:56;;;;;;;10.93;9.82;;;;;;;8.92;100.00;99732.78;10393806;28;20081;-52
2022/03/17 17:17:01;;;;;;;10.95;9.65;;;;;;;8.82;100.00;99734.47;10410369;28;20039;-51
2022/03/17 17:22:07;;;;;;;11.00;10.00;;;;;;;8.73;100.00;99754.81;10410737;28;20042;-54
2022/03/17 17:32:33;;;;;;;;;;;;;;;8.41;100.00;99776.88;10397628;28;20052;-52
2022/03/17 17:37:36;;;;;;;9.65;8.65;;;;;;;8.16;100.00;99789.44;10393220;28;19975;-54
2022/03/17 17:42:40;;;;;;;10.05;9.15;;;;;;;7.97;100.00;99809.53;10369574;28;20069;-55
2022/03/17 17:47:47;;;;;;;10.60;9.70;;;;;;;7.87;100.00;99824.59;10397362;28;20034;-55
2022/03/17 17:52:50;;;;;;;12.00;10.90;;;;;;;7.71;100.00;99839.06;10409361;28;20085;-57
2022/03/17 17:57:58;;;;;;;11.80;10.77;;;;;;;7.61;100.00;99842.53;10408221;28;20570;-56
2022/03/17 18:03:01;;;;;;;10.68;9.68;;;;;;;7.47;100.00;99848.81;10388263;28;20136;-52
2022/03/17 18:08:05;;;;;;;8.50;7.70;;;;;;;7.22;100.00;99863.94;10402231;28;20065;-55
2022/03/17 18:13:10;;;;;;;8.40;7.60;;;;;;;7.12;100.00;99870.88;10368048;28;20053;-59
2022/03/17 18:18:13;;;;;;;7.40;6.70;;;;;;;7.12;100.00;99878.91;10400918;28;20052;-54
2022/03/17 18:23:31;;;;;;;7.40;6.70;;;;;;;7.06;100.00;99875.69;10415019;28;20133;-57
2022/03/17 18:28:36;;;;;;;6.63;6.03;;;;;;;6.98;100.00;99886.06;10420070;28;20091;-57
2022/03/17 18:33:39;;;;;;;5.72;5.15;;;;;;;6.91;100.00;99890.97;10399644;28;20120;-58
2022/03/17 18:38:44;;;;;;;5.45;4.95;;;;;;;6.88;100.00;99903.72;10413043;28;20088;-59
2022/03/17 18:43:49;;;;;;;5.10;4.60;;;;;;;6.85;100.00;99909.28;10417484;28;20116;-62
2022/03/17 18:48:52;;;;;;;4.80;3.90;;;;;;;6.78;100.00;99920.38;10417066;28;20087;-59
2022/03/17 18:53:55;;;;;;;4.43;3.90;;;;;;;6.79;100.00;99916.75;10416815;28;20097;-61
2022/03/17 18:59:00;;;;;;;4.82;3.60;;;;;;;6.79;100.00;99930.13;10379549;28;20072;-63
2022/03/17 19:04:03;;;;;;;5.32;3.63;;;;;;;6.74;100.00;99934.06;10373341;28;20061;-61
2022/03/17 19:09:06;;;;;;;5.38;3.70;;;;;;;6.70;100.00;99941.44;10359273;28;20046;-62
2022/03/17 19:14:11;;;;;;;3.95;3.17;;;;;;;6.72;100.00;99946.69;10377536;28;20474;-61
2022/03/17 19:19:14;;;;;;;4.40;3.30;;;;;;;6.69;100.00;99966.50;10415933;28;20048;-61
2022/03/17 19:24:17;;;;;;;3.85;3.45;;;;;;;6.69;100.00;99963.84;10415586;28;20513;-58
2022/03/17 19:29:22;;;;;;;5.72;3.50;;;;;;;6.70;100.00;99976.28;10411296;28;20113;-56
2022/03/17 19:34:26;;;;;;;4.13;3.47;;;;;;;6.65;100.00;99983.72;10375087;28;20378;-56
2022/03/17 19:39:29;;;;;;;4.68;3.60;;;;;;;6.63;100.00;99991.03;10369852;28;20046;-56
2022/03/17 19:44:36;;;;;;;3.95;3.55;;;;;;;6.61;100.00;99991.09;10375366;28;20113;-54
2022/03/17 19:55:00;;;;;;;7.00;5.00;;;;;;;6.56;100.00;100017.31;10398388;28;20140;-58
2022/03/17 20:00:11;;;;;;;5.90;4.85;;;;;;;6.50;100.00;100023.06;10412901;28;20113;-58
2022/03/17 20:05:14;;;;;;;6.55;5.80;;;;;;;6.47;100.00;100018.75;10414319;28;20121;-57
2022/03/17 20:10:17;;;;;;;8.18;5.90;;;;;;;6.46;100.00;100037.59;10414150;28;20450;-57
2022/03/17 20:15:22;;;;;;;8.65;6.60;;;;;;;6.41;100.00;100051.25;10403351;28;20401;-57
2022/03/17 20:20:26;;;;;;;9.15;6.95;;;;;;;6.39;100.00;100053.19;10455860;28;20128;-58
2022/03/17 20:25:30;;;;;;;9.85;6.55;;;;;;;6.37;100.00;100065.81;10454856;28;20048;-58
2022/03/17 20:30:35;;;;;;;10.70;6.82;;;;;;;6.36;100.00;100071.22;10393514;28;20072;-56
2022/03/17 20:35:39;;;;;;;7.63;6.05;;;;;;;6.25;100.00;100088.81;10421963;28;20448;-56
2022/03/17 20:40:42;;;;;;;7.90;6.32;;;;;;;6.24;100.00;100111.16;10445926;28;20511;-58
2022/03/17 20:45:51;;;;;;;9.32;7.20;;;;;;;6.22;100.00;100093.50;10445996;28;20041;-55
2022/03/17 20:50:55;;;;;;;7.95;6.20;;;;;;;6.19;100.00;100107.03;10437960;28;20043;-59
2022/03/17 20:55:58;;;;;;;6.70;4.70;;;;;;;6.19;100.00;100105.25;10447055;28;20091;-59
2022/03/17 21:01:03;;;;;;;7.00;4.75;;;;;;;6.22;100.00;100107.75;10450987;28;20067;-57
2022/03/17 21:06:07;;;;;;;5.75;4.32;;;;;;;6.24;100.00;100113.84;10464738;28;20057;-57
2022/03/17 21:11:29;;;;;;;6.45;5.40;;;;;;;6.19;100.00;100115.94;10445692;28;20083;-58
2022/03/17 21:16:34;;;;;;;6.88;6.18;;;;;;;6.23;100.00;100119.31;10437315;28;20551;-59
2022/03/17 21:21:38;;;;;;;6.60;5.90;;;;;;;6.25;100.00;100118.25;10429405;28;20434;-59
2022/03/17 21:26:41;;;;;;;9.57;6.57;;;;;;;6.28;100.00;100134.13;10444315;28;20116;-59
2022/03/17 21:31:45;;;;;;;8.63;6.68;;;;;;;6.37;100.00;100131.84;10445194;28;20041;-59
2022/03/17 21:36:50;;;;;;;10.60;6.68;;;;;;;6.44;100.00;100135.91;10431312;28;20041;-60
2022/03/17 21:41:59;;;;;;;8.48;6.18;;;;;;;6.46;100.00;100142.88;10434717;28;20049;-58
2022/03/17 21:47:12;;;;;;;6.60;5.85;;;;;;;6.41;100.00;100147.63;10430427;28;20521;-58
2022/03/17 21:52:15;;;;;;;7.32;4.55;;;;;;;6.34;100.00;100140.09;10408600;28;20074;-56
2022/03/17 21:57:21;;;;;;;6.22;3.83;;;;;;;6.29;100.00;100149.25;10408353;28;20121;-58
2022/03/17 22:02:25;;;;;;;6.65;3.90;;;;;;;6.32;100.00;100156.22;10407473;28;20042;-61
2022/03/17 22:07:29;;;;;;;5.88;3.30;;;;;;;6.24;100.00;100166.53;10391271;28;20050;-61
2022/03/17 22:12:32;;;;;;;5.25;3.50;;;;;;;6.30;100.00;100163.47;10406786;28;20040;-60
2022/03/17 22:17:37;;;;;;;5.45;3.65;;;;;;;6.30;100.00;100171.50;10409466;28;20786;-60
2022/03/17 22:23:05;;;;;;;7.25;3.45;;;;;;;6.29;100.00;100170.66;10407291;28;20115;-59
2022/03/17 22:28:08;;;;;;;6.65;3.40;;;;;;;6.32;100.00;100181.19;10406112;28;20050;-60
2022/03/17 22:33:12;;;;;;;5.10;2.80;;;;;;;6.28;100.00;100187.66;10407230;28;20057;-59
2022/03/17 22:38:16;;;;;;;4.85;2.50;;;;;;;6.32;100.00;100186.56;10441694;28;20043;-58
2022/03/17 22:43:19;;;;;;;7.03;2.90;;;;;;;6.21;100.00;100202.38;10428318;28;20073;-59
2022/03/17 22:48:23;;;;;;;7.47;2.92;;;;;;;6.25;100.00;100205.72;10438652;28;20048;-59
2022/03/17 22:53:26;;;;;;;5.03;2.47;;;;;;;6.13;100.00;100202.81;10409853;28;20395;-59
2022/03/17 22:58:29;;;;;;;4.30;2.25;;;;;;;6.17;100.00;100204.34;10397280;28;20136;-59
2022/03/17 23:03:33;;;;;;;5.28;2.40;;;;;;;6.10;100.00;100216.38;10409805;28;20121;-56
2022/03/17 23:08:37;;;;;;;7.57;2.33;;;;;;;6.10;100.00;100215.53;10408927;28;20049;-59
2022/03/17 23:13:40;;;;;;;4.80;2.35;;;;;;;6.12;100.00;100217.16;10384981;28;20411;-57
2022/03/17 23:18:45;;;;;;;4.55;2.30;;;;;;;6.07;100.00;100221.03;10411193;28;20080;-59
2022/03/17 23:23:48;;;;;;;6.18;2.55;;;;;;;6.04;100.00;100222.09;10416041;28;20133;-58
2022/03/17 23:28:51;;;;;;;5.10;2.45;;;;;;;6.07;100.00;100221.03;10390748;28;20080;-59
2022/03/17 23:33:56;;;;;;;7.38;2.58;;;;;;;6.01;100.00;100219.56;10390840;28;20049;-57
2022/03/17 23:39:06;;;;;;;5.68;2.80;;;;;;;5.97;100.00;100237.59;10413138;28;20069;-58
2022/03/17 23:44:09;;;;;;;9.40;2.70;;;;;;;5.83;100.00;100242.84;10367784;28;20136;-58
2022/03/17 23:49:13;;;;;;;8.82;2.50;;;;;;;5.77;100.00;100244.06;10424325;28;20053;-59
2022/03/17 23:54:16;;;;;;;5.53;2.08;;;;;;;5.69;100.00;100251.66;10456330;28;20056;-57
2022/03/17 23:59:19;;;;;;;5.68;2.10;;;;;;;5.63;100.00;100246.63;10455388;28;20754;-60
